sensor_id;sensor_type;location;lat;lon;timestamp;P1;durP1;ratioP1;P2;durP2;ratioP2
26516;SDS011;14190;51.342;6.338;2023-02-01T00:01:24;44.75;;;13.22;;
26516;SDS011;14190;51.342;6.338;2023-02-01T00:03:52;34.78;;;13.62;;
26516;SDS011;14190;51.342;6.338;2023-02-01T00:06:19;34.95;;;13.60;;
26516;SDS011;14190;51.342;6.338;2023-02-01T00:08:47;43.58;;;13.28;;
26516;SDS011;14190;51.342;6.338;2023-02-01T00:11:14;43.85;;;14.87;;
26516;SDS011;14190;51.342;6.338;2023-02-01T00:13:42;35.10;;;14.58;;
26516;SDS011;14190;51.342;6.338;2023-02-01T00:16:10;38.67;;;15.40;;
26516;SDS011;14190;51.342;6.338;2023-02-01T00:18:43;35.33;;;14.50;;
26516;SDS011;14190;51.342;6.338;2023-02-01T00:21:11;40.08;;;15.05;;
26516;SDS011;14190;51.342;6.338;2023-02-01T00:23:38;36.23;;;15.05;;
26516;SDS011;14190;51.342;6.338;2023-02-01T00:26:06;40.83;;;14.65;;
26516;SDS011;14190;51.342;6.338;2023-02-01T00:28:34;42.43;;;15.05;;
26516;SDS011;14190;51.342;6.338;2023-02-01T00:31:02;35.98;;;14.38;;
26516;SDS011;14190;51.342;6.338;2023-02-01T00:33:30;31.68;;;12.37;;
26516;SDS011;14190;51.342;6.338;2023-02-01T00:36:03;30.70;;;11.65;;
26516;SDS011;14190;51.342;6.338;2023-02-01T00:38:27;33.25;;;10.55;;
26516;SDS011;14190;51.342;6.338;2023-02-01T00:41:01;37.70;;;10.90;;
26516;SDS011;14190;51.342;6.338;2023-02-01T00:43:24;33.55;;;11.20;;
26516;SDS011;14190;51.342;6.338;2023-02-01T00:45:51;32.28;;;10.18;;
26516;SDS011;14190;51.342;6.338;2023-02-01T00:48:19;27.77;;;10.35;;
26516;SDS011;14190;51.342;6.338;2023-02-01T00:50:46;37.88;;;10.90;;
26516;SDS011;14190;51.342;6.338;2023-02-01T00:53:13;46.23;;;10.38;;
26516;SDS011;14190;51.342;6.338;2023-02-01T00:55:44;27.27;;;8.53;;
26516;SDS011;14190;51.342;6.338;2023-02-01T00:58:10;29.92;;;8.85;;
26516;SDS011;14190;51.342;6.338;2023-02-01T01:00:37;39.90;;;9.60;;
26516;SDS011;14190;51.342;6.338;2023-02-01T01:03:04;29.52;;;10.20;;
26516;SDS011;14190;51.342;6.338;2023-02-01T01:05:33;33.55;;;9.93;;
26516;SDS011;14190;51.342;6.338;2023-02-01T01:08:01;28.40;;;8.13;;
26516;SDS011;14190;51.342;6.338;2023-02-01T01:10:28;29.72;;;7.85;;
26516;SDS011;14190;51.342;6.338;2023-02-01T01:12:56;28.35;;;7.65;;
26516;SDS011;14190;51.342;6.338;2023-02-01T01:15:24;32.78;;;7.03;;
26516;SDS011;14190;51.342;6.338;2023-02-01T01:17:52;28.47;;;7.62;;
26516;SDS011;14190;51.342;6.338;2023-02-01T01:20:19;25.02;;;7.25;;
26516;SDS011;14190;51.342;6.338;2023-02-01T01:22:48;29.45;;;7.17;;
26516;SDS011;14190;51.342;6.338;2023-02-01T01:25:15;23.30;;;6.10;;
26516;SDS011;14190;51.342;6.338;2023-02-01T01:27:42;25.27;;;6.67;;
26516;SDS011;14190;51.342;6.338;2023-02-01T01:30:16;27.30;;;5.87;;
26516;SDS011;14190;51.342;6.338;2023-02-01T01:32:44;30.02;;;7.03;;
26516;SDS011;14190;51.342;6.338;2023-02-01T01:35:11;30.80;;;6.40;;
26516;SDS011;14190;51.342;6.338;2023-02-01T01:37:39;23.85;;;6.10;;
26516;SDS011;14190;51.342;6.338;2023-02-01T01:40:06;25.80;;;6.75;;
26516;SDS011;14190;51.342;6.338;2023-02-01T01:42:38;44.98;;;9.30;;
26516;SDS011;14190;51.342;6.338;2023-02-01T01:45:07;25.30;;;6.10;;
26516;SDS011;14190;51.342;6.338;2023-02-01T01:47:35;20.48;;;6.28;;
26516;SDS011;14190;51.342;6.338;2023-02-01T01:50:04;23.57;;;7.33;;
26516;SDS011;14190;51.342;6.338;2023-02-01T01:52:32;32.93;;;6.80;;
26516;SDS011;14190;51.342;6.338;2023-02-01T01:55:00;25.88;;;6.53;;
26516;SDS011;14190;51.342;6.338;2023-02-01T01:57:32;27.48;;;7.35;;
26516;SDS011;14190;51.342;6.338;2023-02-01T02:00:06;37.55;;;7.10;;
26516;SDS011;14190;51.342;6.338;2023-02-01T02:02:31;28.95;;;5.95;;
26516;SDS011;14190;51.342;6.338;2023-02-01T02:04:58;24.98;;;5.37;;
26516;SDS011;14190;51.342;6.338;2023-02-01T02:07:28;24.43;;;6.17;;
26516;SDS011;14190;51.342;6.338;2023-02-01T02:09:55;27.45;;;6.40;;
26516;SDS011;14190;51.342;6.338;2023-02-01T02:12:23;27.13;;;6.25;;
26516;SDS011;14190;51.342;6.338;2023-02-01T02:14:50;34.55;;;7.30;;
26516;SDS011;14190;51.342;6.338;2023-02-01T02:20:09;21.13;;;6.37;;
26516;SDS011;14190;51.342;6.338;2023-02-01T02:30:44;34.45;;;7.00;;
26516;SDS011;14190;51.342;6.338;2023-02-01T02:35:59;30.90;;;5.97;;
26516;SDS011;14190;51.342;6.338;2023-02-01T02:41:02;35.75;;;6.95;;
26516;SDS011;14190;51.342;6.338;2023-02-01T02:43:47;25.12;;;6.37;;
26516;SDS011;14190;51.342;6.338;2023-02-01T02:46:23;34.83;;;7.20;;
26516;SDS011;14190;51.342;6.338;2023-02-01T02:51:49;34.73;;;7.85;;
26516;SDS011;14190;51.342;6.338;2023-02-01T02:54:36;33.67;;;9.20;;
26516;SDS011;14190;51.342;6.338;2023-02-01T02:57:27;30.45;;;7.78;;
26516;SDS011;14190;51.342;6.338;2023-02-01T03:00:14;35.17;;;8.00;;
26516;SDS011;14190;51.342;6.338;2023-02-01T03:03:00;33.53;;;8.65;;
26516;SDS011;14190;51.342;6.338;2023-02-01T03:05:46;40.35;;;8.68;;
26516;SDS011;14190;51.342;6.338;2023-02-01T03:08:16;42.35;;;10.10;;
26516;SDS011;14190;51.342;6.338;2023-02-01T03:10:48;34.45;;;8.70;;
26516;SDS011;14190;51.342;6.338;2023-02-01T03:15:53;33.28;;;8.08;;
26516;SDS011;14190;51.342;6.338;2023-02-01T03:18:25;35.88;;;7.55;;
26516;SDS011;14190;51.342;6.338;2023-02-01T03:20:49;28.30;;;7.15;;
26516;SDS011;14190;51.342;6.338;2023-02-01T03:23:18;39.23;;;7.20;;
26516;SDS011;14190;51.342;6.338;2023-02-01T03:25:47;31.80;;;7.95;;
26516;SDS011;14190;51.342;6.338;2023-02-01T03:28:15;32.10;;;7.58;;
26516;SDS011;14190;51.342;6.338;2023-02-01T03:30:46;36.90;;;8.00;;
26516;SDS011;14190;51.342;6.338;2023-02-01T03:33:16;27.70;;;7.28;;
26516;SDS011;14190;51.342;6.338;2023-02-01T03:38:36;33.55;;;8.18;;
26516;SDS011;14190;51.342;6.338;2023-02-01T03:41:06;38.45;;;8.48;;
26516;SDS011;14190;51.342;6.338;2023-02-01T03:43:33;36.30;;;7.62;;
26516;SDS011;14190;51.342;6.338;2023-02-01T03:46:02;30.65;;;7.50;;
26516;SDS011;14190;51.342;6.338;2023-02-01T03:48:29;34.23;;;7.05;;
26516;SDS011;14190;51.342;6.338;2023-02-01T03:50:59;36.70;;;7.70;;
26516;SDS011;14190;51.342;6.338;2023-02-01T03:53:27;33.00;;;7.60;;
26516;SDS011;14190;51.342;6.338;2023-02-01T03:55:55;34.25;;;8.05;;
26516;SDS011;14190;51.342;6.338;2023-02-01T03:58:24;38.00;;;7.03;;
26516;SDS011;14190;51.342;6.338;2023-02-01T04:03:21;31.97;;;7.80;;
26516;SDS011;14190;51.342;6.338;2023-02-01T04:05:49;43.08;;;8.15;;
26516;SDS011;14190;51.342;6.338;2023-02-01T04:08:18;30.80;;;6.85;;
26516;SDS011;14190;51.342;6.338;2023-02-01T04:10:45;28.42;;;6.35;;
26516;SDS011;14190;51.342;6.338;2023-02-01T04:13:12;29.10;;;7.03;;
26516;SDS011;14190;51.342;6.338;2023-02-01T04:15:40;29.80;;;6.92;;
26516;SDS011;14190;51.342;6.338;2023-02-01T04:18:07;32.55;;;7.62;;
26516;SDS011;14190;51.342;6.338;2023-02-01T04:20:34;29.35;;;6.10;;
26516;SDS011;14190;51.342;6.338;2023-02-01T04:23:02;28.80;;;6.35;;
26516;SDS011;14190;51.342;6.338;2023-02-01T04:25:29;36.68;;;6.20;;
26516;SDS011;14190;51.342;6.338;2023-02-01T04:27:56;27.27;;;6.17;;
26516;SDS011;14190;51.342;6.338;2023-02-01T04:30:25;25.85;;;6.20;;
26516;SDS011;14190;51.342;6.338;2023-02-01T04:32:53;31.42;;;6.72;;
26516;SDS011;14190;51.342;6.338;2023-02-01T04:35:20;36.05;;;7.33;;
26516;SDS011;14190;51.342;6.338;2023-02-01T04:37:48;30.88;;;7.00;;
26516;SDS011;14190;51.342;6.338;2023-02-01T04:40:15;35.08;;;8.48;;
26516;SDS011;14190;51.342;6.338;2023-02-01T04:42:43;43.73;;;7.28;;
26516;SDS011;14190;51.342;6.338;2023-02-01T04:45:10;39.85;;;6.62;;
26516;SDS011;14190;51.342;6.338;2023-02-01T04:47:37;32.75;;;6.10;;
26516;SDS011;14190;51.342;6.338;2023-02-01T04:50:05;37.15;;;6.62;;
26516;SDS011;14190;51.342;6.338;2023-02-01T04:52:33;40.95;;;6.87;;
26516;SDS011;14190;51.342;6.338;2023-02-01T04:55:01;37.53;;;7.17;;
26516;SDS011;14190;51.342;6.338;2023-02-01T04:57:29;40.67;;;8.08;;
26516;SDS011;14190;51.342;6.338;2023-02-01T04:59:56;31.50;;;6.15;;
26516;SDS011;14190;51.342;6.338;2023-02-01T05:02:24;34.92;;;6.70;;
26516;SDS011;14190;51.342;6.338;2023-02-01T05:04:51;33.13;;;6.35;;
26516;SDS011;14190;51.342;6.338;2023-02-01T05:07:18;34.33;;;6.50;;
26516;SDS011;14190;51.342;6.338;2023-02-01T05:09:46;28.95;;;6.53;;
26516;SDS011;14190;51.342;6.338;2023-02-01T05:12:13;33.75;;;6.03;;
26516;SDS011;14190;51.342;6.338;2023-02-01T05:14:59;56.75;;;8.70;;
26516;SDS011;14190;51.342;6.338;2023-02-01T05:17:26;42.53;;;6.85;;
26516;SDS011;14190;51.342;6.338;2023-02-01T05:19:54;41.10;;;7.60;;
26516;SDS011;14190;51.342;6.338;2023-02-01T05:22:21;43.25;;;6.85;;
26516;SDS011;14190;51.342;6.338;2023-02-01T05:24:48;46.15;;;8.00;;
26516;SDS011;14190;51.342;6.338;2023-02-01T05:27:16;32.65;;;6.55;;
26516;SDS011;14190;51.342;6.338;2023-02-01T05:29:43;29.65;;;7.12;;
26516;SDS011;14190;51.342;6.338;2023-02-01T05:32:10;27.95;;;6.62;;
26516;SDS011;14190;51.342;6.338;2023-02-01T05:34:38;32.53;;;7.90;;
26516;SDS011;14190;51.342;6.338;2023-02-01T05:37:05;37.73;;;7.03;;
26516;SDS011;14190;51.342;6.338;2023-02-01T05:39:33;32.78;;;6.28;;
26516;SDS011;14190;51.342;6.338;2023-02-01T05:42:00;27.50;;;6.03;;
26516;SDS011;14190;51.342;6.338;2023-02-01T05:44:27;47.67;;;6.58;;
26516;SDS011;14190;51.342;6.338;2023-02-01T05:46:55;39.65;;;6.60;;
26516;SDS011;14190;51.342;6.338;2023-02-01T05:49:22;41.88;;;6.53;;
26516;SDS011;14190;51.342;6.338;2023-02-01T05:51:50;37.88;;;6.67;;
26516;SDS011;14190;51.342;6.338;2023-02-01T05:54:17;33.38;;;6.67;;
26516;SDS011;14190;51.342;6.338;2023-02-01T05:56:44;37.70;;;7.47;;
26516;SDS011;14190;51.342;6.338;2023-02-01T05:59:12;31.75;;;6.75;;
26516;SDS011;14190;51.342;6.338;2023-02-01T06:01:39;44.63;;;7.47;;
26516;SDS011;14190;51.342;6.338;2023-02-01T06:04:06;28.57;;;6.67;;
26516;SDS011;14190;51.342;6.338;2023-02-01T06:06:34;35.40;;;7.78;;
26516;SDS011;14190;51.342;6.338;2023-02-01T06:09:03;45.50;;;7.83;;
26516;SDS011;14190;51.342;6.338;2023-02-01T06:11:31;36.23;;;6.42;;
26516;SDS011;14190;51.342;6.338;2023-02-01T06:13:58;28.17;;;6.08;;
26516;SDS011;14190;51.342;6.338;2023-02-01T06:16:26;40.20;;;6.30;;
26516;SDS011;14190;51.342;6.338;2023-02-01T06:18:53;30.08;;;5.78;;
26516;SDS011;14190;51.342;6.338;2023-02-01T06:21:20;35.17;;;6.78;;
26516;SDS011;14190;51.342;6.338;2023-02-01T06:23:51;37.13;;;7.33;;
26516;SDS011;14190;51.342;6.338;2023-02-01T06:26:18;38.20;;;7.50;;
26516;SDS011;14190;51.342;6.338;2023-02-01T06:28:46;42.00;;;8.10;;
26516;SDS011;14190;51.342;6.338;2023-02-01T06:31:13;29.60;;;6.22;;
26516;SDS011;14190;51.342;6.338;2023-02-01T06:33:41;42.05;;;7.08;;
26516;SDS011;14190;51.342;6.338;2023-02-01T06:36:09;39.60;;;6.35;;
26516;SDS011;14190;51.342;6.338;2023-02-01T06:38:38;40.23;;;6.42;;
26516;SDS011;14190;51.342;6.338;2023-02-01T06:41:06;32.42;;;6.75;;
26516;SDS011;14190;51.342;6.338;2023-02-01T06:43:33;44.42;;;6.70;;
26516;SDS011;14190;51.342;6.338;2023-02-01T06:46:01;38.20;;;7.10;;
26516;SDS011;14190;51.342;6.338;2023-02-01T06:48:29;38.13;;;7.53;;
26516;SDS011;14190;51.342;6.338;2023-02-01T06:50:57;34.63;;;6.65;;
26516;SDS011;14190;51.342;6.338;2023-02-01T06:53:24;36.53;;;7.45;;
26516;SDS011;14190;51.342;6.338;2023-02-01T06:55:56;41.15;;;7.50;;
26516;SDS011;14190;51.342;6.338;2023-02-01T06:58:23;34.38;;;6.40;;
26516;SDS011;14190;51.342;6.338;2023-02-01T07:00:51;35.52;;;6.30;;
26516;SDS011;14190;51.342;6.338;2023-02-01T07:03:20;31.65;;;7.33;;
26516;SDS011;14190;51.342;6.338;2023-02-01T07:05:47;39.78;;;6.47;;
26516;SDS011;14190;51.342;6.338;2023-02-01T07:08:14;44.48;;;8.08;;
26516;SDS011;14190;51.342;6.338;2023-02-01T07:10:42;33.85;;;6.75;;
26516;SDS011;14190;51.342;6.338;2023-02-01T07:13:09;33.55;;;6.62;;
26516;SDS011;14190;51.342;6.338;2023-02-01T07:15:37;31.90;;;7.42;;
26516;SDS011;14190;51.342;6.338;2023-02-01T07:18:04;44.18;;;7.67;;
26516;SDS011;14190;51.342;6.338;2023-02-01T07:20:31;28.70;;;6.33;;
26516;SDS011;14190;51.342;6.338;2023-02-01T07:22:59;34.27;;;7.30;;
26516;SDS011;14190;51.342;6.338;2023-02-01T07:25:26;37.45;;;6.78;;
26516;SDS011;14190;51.342;6.338;2023-02-01T07:27:53;43.33;;;7.33;;
26516;SDS011;14190;51.342;6.338;2023-02-01T07:30:21;37.67;;;6.53;;
26516;SDS011;14190;51.342;6.338;2023-02-01T07:32:48;29.80;;;6.83;;
26516;SDS011;14190;51.342;6.338;2023-02-01T07:35:16;36.90;;;5.65;;
26516;SDS011;14190;51.342;6.338;2023-02-01T07:37:43;38.40;;;7.33;;
26516;SDS011;14190;51.342;6.338;2023-02-01T07:40:11;32.53;;;6.15;;
26516;SDS011;14190;51.342;6.338;2023-02-01T07:42:38;40.50;;;7.62;;
26516;SDS011;14190;51.342;6.338;2023-02-01T07:45:06;41.50;;;7.30;;
26516;SDS011;14190;51.342;6.338;2023-02-01T07:47:33;39.73;;;7.42;;
26516;SDS011;14190;51.342;6.338;2023-02-01T07:50:01;34.20;;;8.08;;
26516;SDS011;14190;51.342;6.338;2023-02-01T07:52:28;44.55;;;7.80;;
26516;SDS011;14190;51.342;6.338;2023-02-01T07:54:56;30.82;;;6.03;;
26516;SDS011;14190;51.342;6.338;2023-02-01T07:57:23;36.30;;;5.72;;
26516;SDS011;14190;51.342;6.338;2023-02-01T07:59:50;43.90;;;7.62;;
26516;SDS011;14190;51.342;6.338;2023-02-01T08:02:38;35.90;;;6.30;;
26516;SDS011;14190;51.342;6.338;2023-02-01T08:05:06;35.43;;;7.05;;
26516;SDS011;14190;51.342;6.338;2023-02-01T08:07:33;30.50;;;6.25;;
26516;SDS011;14190;51.342;6.338;2023-02-01T08:10:01;38.90;;;7.30;;
26516;SDS011;14190;51.342;6.338;2023-02-01T08:12:28;46.30;;;6.90;;
26516;SDS011;14190;51.342;6.338;2023-02-01T08:14:55;38.10;;;7.60;;
26516;SDS011;14190;51.342;6.338;2023-02-01T08:17:23;32.70;;;6.53;;
26516;SDS011;14190;51.342;6.338;2023-02-01T08:19:50;44.33;;;6.20;;
26516;SDS011;14190;51.342;6.338;2023-02-01T08:22:18;32.58;;;6.37;;
26516;SDS011;14190;51.342;6.338;2023-02-01T08:24:47;34.78;;;7.05;;
26516;SDS011;14190;51.342;6.338;2023-02-01T08:27:14;32.33;;;7.08;;
26516;SDS011;14190;51.342;6.338;2023-02-01T08:29:41;43.38;;;6.72;;
26516;SDS011;14190;51.342;6.338;2023-02-01T08:32:09;36.45;;;7.30;;
26516;SDS011;14190;51.342;6.338;2023-02-01T08:34:36;45.63;;;6.97;;
26516;SDS011;14190;51.342;6.338;2023-02-01T08:37:03;39.65;;;7.12;;
26516;SDS011;14190;51.342;6.338;2023-02-01T08:39:31;26.33;;;6.35;;
26516;SDS011;14190;51.342;6.338;2023-02-01T08:41:58;35.75;;;7.00;;
26516;SDS011;14190;51.342;6.338;2023-02-01T08:44:43;33.23;;;6.85;;
26516;SDS011;14190;51.342;6.338;2023-02-01T08:47:11;37.20;;;6.37;;
26516;SDS011;14190;51.342;6.338;2023-02-01T08:49:38;33.40;;;7.50;;
26516;SDS011;14190;51.342;6.338;2023-02-01T08:52:05;39.90;;;5.97;;
26516;SDS011;14190;51.342;6.338;2023-02-01T08:54:33;29.30;;;7.65;;
26516;SDS011;14190;51.342;6.338;2023-02-01T08:57:00;27.07;;;6.70;;
26516;SDS011;14190;51.342;6.338;2023-02-01T08:59:29;33.92;;;6.97;;
26516;SDS011;14190;51.342;6.338;2023-02-01T09:01:56;28.77;;;5.75;;
26516;SDS011;14190;51.342;6.338;2023-02-01T09:04:23;29.55;;;5.37;;
26516;SDS011;14190;51.342;6.338;2023-02-01T09:06:51;45.83;;;7.95;;
26516;SDS011;14190;51.342;6.338;2023-02-01T09:09:18;36.10;;;7.47;;
26516;SDS011;14190;51.342;6.338;2023-02-01T09:11:46;47.58;;;7.00;;
26516;SDS011;14190;51.342;6.338;2023-02-01T09:14:13;36.48;;;6.90;;
26516;SDS011;14190;51.342;6.338;2023-02-01T09:16:40;35.65;;;6.50;;
26516;SDS011;14190;51.342;6.338;2023-02-01T09:19:08;40.25;;;8.05;;
26516;SDS011;14190;51.342;6.338;2023-02-01T09:21:35;42.75;;;8.83;;
26516;SDS011;14190;51.342;6.338;2023-02-01T09:24:03;27.93;;;6.37;;
26516;SDS011;14190;51.342;6.338;2023-02-01T09:26:30;36.03;;;6.87;;
26516;SDS011;14190;51.342;6.338;2023-02-01T09:28:58;44.63;;;6.55;;
26516;SDS011;14190;51.342;6.338;2023-02-01T09:31:25;38.67;;;7.55;;
26516;SDS011;14190;51.342;6.338;2023-02-01T09:33:53;35.33;;;6.90;;
26516;SDS011;14190;51.342;6.338;2023-02-01T09:36:20;43.83;;;6.72;;
26516;SDS011;14190;51.342;6.338;2023-02-01T09:38:48;37.83;;;7.20;;
26516;SDS011;14190;51.342;6.338;2023-02-01T09:41:35;36.08;;;6.33;;
26516;SDS011;14190;51.342;6.338;2023-02-01T09:46:31;39.55;;;7.25;;
26516;SDS011;14190;51.342;6.338;2023-02-01T09:49:01;41.50;;;7.70;;
26516;SDS011;14190;51.342;6.338;2023-02-01T09:51:34;41.13;;;7.80;;
26516;SDS011;14190;51.342;6.338;2023-02-01T09:54:00;37.88;;;7.90;;
26516;SDS011;14190;51.342;6.338;2023-02-01T09:56:36;36.38;;;7.35;;
26516;SDS011;14190;51.342;6.338;2023-02-01T10:01:36;38.85;;;6.58;;
26516;SDS011;14190;51.342;6.338;2023-02-01T10:04:11;31.73;;;7.47;;
26516;SDS011;14190;51.342;6.338;2023-02-01T10:09:27;40.08;;;7.15;;
26516;SDS011;14190;51.342;6.338;2023-02-01T10:12:07;24.20;;;6.50;;
26516;SDS011;14190;51.342;6.338;2023-02-01T10:22:42;34.35;;;7.35;;
26516;SDS011;14190;51.342;6.338;2023-02-01T10:27:42;36.65;;;6.50;;
26516;SDS011;14190;51.342;6.338;2023-02-01T10:32:38;38.02;;;6.65;;
26516;SDS011;14190;51.342;6.338;2023-02-01T10:35:13;30.20;;;5.65;;
26516;SDS011;14190;51.342;6.338;2023-02-01T10:37:41;26.10;;;5.97;;
26516;SDS011;14190;51.342;6.338;2023-02-01T10:40:30;24.77;;;6.65;;
26516;SDS011;14190;51.342;6.338;2023-02-01T10:42:38;35.88;;;7.53;;
26516;SDS011;14190;51.342;6.338;2023-02-01T10:45:06;40.48;;;7.00;;
26516;SDS011;14190;51.342;6.338;2023-02-01T10:47:34;35.33;;;6.40;;
26516;SDS011;14190;51.342;6.338;2023-02-01T10:50:13;31.65;;;6.33;;
26516;SDS011;14190;51.342;6.338;2023-02-01T10:58:00;31.33;;;6.92;;
26516;SDS011;14190;51.342;6.338;2023-02-01T11:00:24;25.65;;;5.97;;
26516;SDS011;14190;51.342;6.338;2023-02-01T11:02:52;27.30;;;7.20;;
26516;SDS011;14190;51.342;6.338;2023-02-01T11:05:20;31.33;;;6.60;;
26516;SDS011;14190;51.342;6.338;2023-02-01T11:07:49;28.80;;;6.58;;
26516;SDS011;14190;51.342;6.338;2023-02-01T11:13:03;23.45;;;6.12;;
26516;SDS011;14190;51.342;6.338;2023-02-01T11:15:31;32.85;;;6.28;;
26516;SDS011;14190;51.342;6.338;2023-02-01T11:18:07;32.58;;;9.10;;
26516;SDS011;14190;51.342;6.338;2023-02-01T11:23:02;27.30;;;6.17;;
26516;SDS011;14190;51.342;6.338;2023-02-01T11:25:29;24.87;;;6.30;;
26516;SDS011;14190;51.342;6.338;2023-02-01T11:27:57;29.12;;;6.35;;
26516;SDS011;14190;51.342;6.338;2023-02-01T11:30:34;32.78;;;7.15;;
26516;SDS011;14190;51.342;6.338;2023-02-01T11:33:03;39.00;;;7.65;;
26516;SDS011;14190;51.342;6.338;2023-02-01T11:35:31;33.95;;;6.50;;
26516;SDS011;14190;51.342;6.338;2023-02-01T11:37:59;21.50;;;5.97;;
26516;SDS011;14190;51.342;6.338;2023-02-01T11:40:45;37.35;;;6.83;;
26516;SDS011;14190;51.342;6.338;2023-02-01T11:43:00;37.53;;;6.20;;
26516;SDS011;14190;51.342;6.338;2023-02-01T11:45:29;30.23;;;6.53;;
26516;SDS011;14190;51.342;6.338;2023-02-01T11:47:57;31.12;;;6.22;;
26516;SDS011;14190;51.342;6.338;2023-02-01T11:50:30;31.68;;;6.42;;
26516;SDS011;14190;51.342;6.338;2023-02-01T11:55:47;23.45;;;5.50;;
26516;SDS011;14190;51.342;6.338;2023-02-01T11:58:24;29.90;;;6.30;;
26516;SDS011;14190;51.342;6.338;2023-02-01T12:08:57;25.43;;;5.72;;
26516;SDS011;14190;51.342;6.338;2023-02-01T12:11:31;29.35;;;5.45;;
26516;SDS011;14190;51.342;6.338;2023-02-01T12:19:17;18.50;;;4.55;;
26516;SDS011;14190;51.342;6.338;2023-02-01T12:21:49;38.30;;;7.92;;
26516;SDS011;14190;51.342;6.338;2023-02-01T12:32:03;30.20;;;6.05;;
26516;SDS011;14190;51.342;6.338;2023-02-01T12:37:26;29.70;;;6.90;;
26516;SDS011;14190;51.342;6.338;2023-02-01T12:39:54;20.90;;;4.72;;
26516;SDS011;14190;51.342;6.338;2023-02-01T12:42:22;21.07;;;3.87;;
26516;SDS011;14190;51.342;6.338;2023-02-01T12:50:17;19.95;;;3.83;;
26516;SDS011;14190;51.342;6.338;2023-02-01T12:52:46;21.80;;;3.37;;
26516;SDS011;14190;51.342;6.338;2023-02-01T12:57:44;15.73;;;3.80;;
26516;SDS011;14190;51.342;6.338;2023-02-01T13:03:07;18.12;;;3.22;;
26516;SDS011;14190;51.342;6.338;2023-02-01T13:05:50;25.80;;;3.83;;
26516;SDS011;14190;51.342;6.338;2023-02-01T13:08:17;21.55;;;4.42;;
26516;SDS011;14190;51.342;6.338;2023-02-01T13:10:51;18.57;;;3.55;;
26516;SDS011;14190;51.342;6.338;2023-02-01T13:18:35;26.05;;;4.50;;
26516;SDS011;14190;51.342;6.338;2023-02-01T13:21:02;22.35;;;4.42;;
26516;SDS011;14190;51.342;6.338;2023-02-01T13:23:34;15.93;;;3.45;;
26516;SDS011;14190;51.342;6.338;2023-02-01T13:25:57;25.30;;;4.72;;
26516;SDS011;14190;51.342;6.338;2023-02-01T13:28:29;20.85;;;3.50;;
26516;SDS011;14190;51.342;6.338;2023-02-01T13:33:48;16.97;;;3.72;;
26516;SDS011;14190;51.342;6.338;2023-02-01T13:36:26;26.70;;;4.95;;
26516;SDS011;14190;51.342;6.338;2023-02-01T13:41:27;26.80;;;4.10;;
26516;SDS011;14190;51.342;6.338;2023-02-01T13:43:55;26.93;;;4.87;;
26516;SDS011;14190;51.342;6.338;2023-02-01T13:46:23;17.95;;;4.20;;
26516;SDS011;14190;51.342;6.338;2023-02-01T13:49:00;19.60;;;4.75;;
26516;SDS011;14190;51.342;6.338;2023-02-01T13:51:33;23.75;;;4.33;;
26516;SDS011;14190;51.342;6.338;2023-02-01T13:54:01;27.13;;;5.28;;
26516;SDS011;14190;51.342;6.338;2023-02-01T13:56:29;20.17;;;4.35;;
26516;SDS011;14190;51.342;6.338;2023-02-01T13:58:58;24.82;;;4.72;;
26516;SDS011;14190;51.342;6.338;2023-02-01T14:03:59;23.05;;;4.25;;
26516;SDS011;14190;51.342;6.338;2023-02-01T14:09:11;22.80;;;4.22;;
26516;SDS011;14190;51.342;6.338;2023-02-01T14:11:40;26.45;;;4.58;;
26516;SDS011;14190;51.342;6.338;2023-02-01T14:14:47;28.10;;;4.35;;
26516;SDS011;14190;51.342;6.338;2023-02-01T14:16:35;28.12;;;4.55;;
26516;SDS011;14190;51.342;6.338;2023-02-01T14:19:03;28.90;;;4.28;;
26516;SDS011;14190;51.342;6.338;2023-02-01T14:21:33;27.90;;;4.17;;
26516;SDS011;14190;51.342;6.338;2023-02-01T14:34:29;23.55;;;4.28;;
26516;SDS011;14190;51.342;6.338;2023-02-01T14:36:59;23.30;;;3.80;;
26516;SDS011;14190;51.342;6.338;2023-02-01T14:39:28;28.40;;;4.70;;
26516;SDS011;14190;51.342;6.338;2023-02-01T14:41:57;26.48;;;3.98;;
26516;SDS011;14190;51.342;6.338;2023-02-01T14:44:26;27.65;;;4.28;;
26516;SDS011;14190;51.342;6.338;2023-02-01T14:49:32;32.55;;;4.50;;
26516;SDS011;14190;51.342;6.338;2023-02-01T14:52:01;25.45;;;5.00;;
26516;SDS011;14190;51.342;6.338;2023-02-01T14:54:29;27.55;;;5.60;;
26516;SDS011;14190;51.342;6.338;2023-02-01T14:56:56;22.87;;;4.12;;
26516;SDS011;14190;51.342;6.338;2023-02-01T14:59:24;30.82;;;4.60;;
26516;SDS011;14190;51.342;6.338;2023-02-01T15:01:53;21.12;;;5.05;;
26516;SDS011;14190;51.342;6.338;2023-02-01T15:04:24;18.70;;;4.28;;
26516;SDS011;14190;51.342;6.338;2023-02-01T15:06:56;25.23;;;4.58;;
26516;SDS011;14190;51.342;6.338;2023-02-01T15:09:26;32.25;;;5.20;;
26516;SDS011;14190;51.342;6.338;2023-02-01T15:14:25;22.05;;;4.45;;
26516;SDS011;14190;51.342;6.338;2023-02-01T15:16:53;26.60;;;4.87;;
26516;SDS011;14190;51.342;6.338;2023-02-01T15:19:24;36.05;;;7.83;;
26516;SDS011;14190;51.342;6.338;2023-02-01T15:21:50;23.85;;;4.72;;
26516;SDS011;14190;51.342;6.338;2023-02-01T15:24:20;29.70;;;4.65;;
26516;SDS011;14190;51.342;6.338;2023-02-01T15:26:47;19.05;;;4.47;;
26516;SDS011;14190;51.342;6.338;2023-02-01T15:29:15;31.90;;;5.47;;
26516;SDS011;14190;51.342;6.338;2023-02-01T15:31:44;27.17;;;4.83;;
26516;SDS011;14190;51.342;6.338;2023-02-01T15:34:12;36.75;;;6.83;;
26516;SDS011;14190;51.342;6.338;2023-02-01T15:36:40;26.35;;;5.17;;
26516;SDS011;14190;51.342;6.338;2023-02-01T15:39:26;25.55;;;6.67;;
26516;SDS011;14190;51.342;6.338;2023-02-01T15:41:41;30.52;;;5.67;;
26516;SDS011;14190;51.342;6.338;2023-02-01T15:46:48;30.60;;;5.45;;
26516;SDS011;14190;51.342;6.338;2023-02-01T15:49:25;28.62;;;5.15;;
26516;SDS011;14190;51.342;6.338;2023-02-01T15:51:52;32.42;;;5.72;;
26516;SDS011;14190;51.342;6.338;2023-02-01T15:54:28;36.10;;;5.90;;
26516;SDS011;14190;51.342;6.338;2023-02-01T15:56:58;22.82;;;4.67;;
26516;SDS011;14190;51.342;6.338;2023-02-01T15:59:32;22.50;;;5.28;;
26516;SDS011;14190;51.342;6.338;2023-02-01T16:01:55;23.95;;;4.95;;
26516;SDS011;14190;51.342;6.338;2023-02-01T16:04:24;30.77;;;5.15;;
26516;SDS011;14190;51.342;6.338;2023-02-01T16:06:55;36.30;;;6.80;;
26516;SDS011;14190;51.342;6.338;2023-02-01T16:09:24;31.48;;;5.75;;
26516;SDS011;14190;51.342;6.338;2023-02-01T16:11:55;34.13;;;6.25;;
26516;SDS011;14190;51.342;6.338;2023-02-01T16:14:22;31.55;;;5.25;;
26516;SDS011;14190;51.342;6.338;2023-02-01T16:16:50;29.65;;;4.92;;
26516;SDS011;14190;51.342;6.338;2023-02-01T16:19:18;22.32;;;5.17;;
26516;SDS011;14190;51.342;6.338;2023-02-01T16:21:46;32.38;;;5.42;;
26516;SDS011;14190;51.342;6.338;2023-02-01T16:24:13;37.05;;;5.55;;
26516;SDS011;14190;51.342;6.338;2023-02-01T16:26:41;35.85;;;4.83;;
26516;SDS011;14190;51.342;6.338;2023-02-01T16:29:09;30.62;;;5.10;;
26516;SDS011;14190;51.342;6.338;2023-02-01T16:31:37;25.68;;;4.80;;
26516;SDS011;14190;51.342;6.338;2023-02-01T16:34:05;22.62;;;4.62;;
26516;SDS011;14190;51.342;6.338;2023-02-01T16:36:33;28.75;;;5.60;;
26516;SDS011;14190;51.342;6.338;2023-02-01T16:39:01;24.15;;;5.35;;
26516;SDS011;14190;51.342;6.338;2023-02-01T16:41:30;31.93;;;6.08;;
26516;SDS011;14190;51.342;6.338;2023-02-01T16:43:57;41.48;;;5.90;;
26516;SDS011;14190;51.342;6.338;2023-02-01T16:46:25;29.40;;;5.78;;
26516;SDS011;14190;51.342;6.338;2023-02-01T16:48:59;26.70;;;4.83;;
26516;SDS011;14190;51.342;6.338;2023-02-01T16:51:23;21.42;;;5.67;;
26516;SDS011;14190;51.342;6.338;2023-02-01T16:53:51;26.42;;;7.15;;